Time;durP1;ratioP1;P1;durP2;ratioP2;P2;SDS_P1;SDS_P2;PMS_P1;PMS_P2;Temp;Humidity;BMP_temperature;BMP_pressure;BME280_temperature;BME280_humidity;BME280_pressure;Samples;Min_cycle;Max_cycle;Signal;HPM_P1;HPM_P2
2022/02/06 00:02:15;;;;;;;5.68;1.80;;;7.90;70.80;;;;;;2343702;54;21001;-71
2022/02/06 00:04:43;;;;;;;5.57;1.75;;;7.90;70.40;;;;;;2343945;54;20985;-74
2022/02/06 00:07:11;;;;;;;5.10;1.60;;;7.90;70.50;;;;;;2349707;53;21006;-70
2022/02/06 00:09:38;;;;;;;6.53;1.52;;;7.90;70.40;;;;;;2344846;54;20970;-74
2022/02/06 00:12:15;;;;;;;6.82;1.65;;;7.90;70.30;;;;;;2324860;54;20970;-73
2022/02/06 00:14:41;;;;;;;5.57;1.83;;;7.90;70.50;;;;;;2348098;53;21408;-72
2022/02/06 00:17:11;;;;;;;9.32;1.75;;;7.90;70.40;;;;;;2344527;54;20990;-73
2022/02/06 00:19:49;;;;;;;5.78;1.48;;;7.90;70.40;;;;;;2340690;54;21451;-72
2022/02/06 00:22:27;;;;;;;3.25;1.33;;;7.90;69.90;;;;;;2345064;53;20974;-75
2022/02/06 00:25:50;;;;;;;6.53;1.87;;;7.90;70.40;;;;;;2355013;53;20973;-72
2022/02/06 00:28:38;;;;;;;5.30;1.73;;;7.90;70.40;;;;;;2305354;54;20911;-72
2022/02/06 00:40:32;;;;;;;5.12;1.67;;;7.90;70.00;;;;;;2338281;53;20983;-71
2022/02/06 00:42:59;;;;;;;4.25;1.40;;;7.90;70.00;;;;;;2339952;55;20899;-72
2022/02/06 00:45:25;;;;;;;7.43;1.60;;;7.90;70.60;;;;;;2339680;55;20931;-72
2022/02/06 00:47:52;;;;;;;6.45;1.67;;;7.80;70.10;;;;;;2342762;53;21000;-70
2022/02/06 00:50:19;;;;;;;7.60;1.58;;;7.90;70.70;;;;;;2340128;53;20919;-71
2022/02/06 00:53:00;;;;;;;9.02;1.48;;;7.90;70.50;;;;;;2492630;53;20939;-73
2022/02/06 00:55:27;;;;;;;6.57;1.87;;;7.90;70.50;;;;;;2340131;55;20920;-72
2022/02/06 00:57:54;;;;;;;5.35;1.67;;;7.90;70.40;;;;;;2340277;55;20899;-70
2022/02/06 01:00:20;;;;;;;7.85;1.67;;;7.90;70.30;;;;;;2339985;55;20908;-72
2022/02/06 01:02:47;;;;;;;5.78;1.62;;;8.00;70.40;;;;;;2375832;53;20951;-70
2022/02/06 01:05:13;;;;;;;7.70;1.73;;;8.00;70.30;;;;;;2340014;55;20968;-73
2022/02/06 01:07:39;;;;;;;9.57;2.00;;;8.00;70.40;;;;;;2337822;55;20911;-73
2022/02/06 01:10:24;;;;;;;4.43;1.65;;;8.00;70.10;;;;;;2349457;53;21027;-71
2022/02/06 01:13:10;;;;;;;;;;;;;;;;;;;;;
2022/02/06 01:15:38;;;;;;;7.12;1.98;;;8.00;69.10;;;;;;2334328;54;20987;-71
2022/02/06 01:18:09;;;;;;;5.65;1.62;;;8.00;69.50;;;;;;2340151;55;20923;-73
2022/02/06 01:20:41;;;;;;;6.47;1.70;;;8.00;69.50;;;;;;2396582;53;20915;-74
2022/02/06 01:23:21;;;;;;;6.20;1.90;;;7.90;69.50;;;;;;2586411;53;20990;-72
2022/02/06 01:25:56;;;;;;;4.18;1.50;;;8.00;69.40;;;;;;2340048;55;20927;-71
2022/02/06 01:28:32;;;;;;;3.58;1.25;;;7.90;69.60;;;;;;2340610;54;20955;-71
2022/02/06 01:31:30;;;;;;;5.20;1.55;;;7.90;69.70;;;;;;2585725;53;20959;-73
2022/02/06 01:34:00;;;;;;;3.70;1.10;;;7.90;69.70;;;;;;2340486;54;20891;-70
2022/02/06 01:36:37;;;;;;;6.43;1.37;;;7.90;69.80;;;;;;2444153;53;20994;-72
2022/02/06 01:39:13;;;;;;;5.75;1.75;;;7.90;69.80;;;;;;2339861;55;21003;-72
2022/02/06 01:41:42;;;;;;;4.87;1.30;;;7.90;70.10;;;;;;2561016;53;20957;-72
2022/02/06 02:11:32;;;;;;;6.18;1.40;;;7.80;69.90;;;;;;2340351;55;20968;-73
2022/02/06 02:30:54;;;;;;;6.20;1.50;;;7.70;69.90;;;;;;2339628;55;20955;-71
2022/02/06 02:47:15;;;;;;;6.00;2.00;;;7.70;70.50;;;;;;2340124;55;20915;-72
2022/02/06 02:49:50;;;;;;;2.92;1.27;;;7.60;70.20;;;;;;2340353;55;20987;-72
2022/02/06 02:53:11;;;;;;;6.07;1.60;;;7.60;70.50;;;;;;2347448;53;21882;-70
2022/02/06 02:56:07;;;;;;;6.28;1.87;;;7.60;70.50;;;;;;2315588;54;21015;-70
2022/02/06 03:04:07;;;;;;;5.03;1.55;;;7.60;70.40;;;;;;2340157;55;20928;-71
2022/02/06 03:06:34;;;;;;;3.65;1.30;;;7.70;70.80;;;;;;2340491;55;20954;-71
2022/02/06 03:09:01;;;;;;;5.82;1.60;;;7.70;70.80;;;;;;2345386;53;20923;-73
2022/02/06 03:11:27;;;;;;;7.37;1.95;;;7.70;70.80;;;;;;2362192;53;20931;-72
2022/02/06 03:14:03;;;;;;;6.65;2.00;;;7.70;70.60;;;;;;2340071;53;20983;-73
2022/02/06 03:16:37;;;;;;;7.25;2.28;;;7.70;70.40;;;;;;2340349;55;20934;-72
2022/02/06 03:19:10;;;;;;;5.95;1.67;;;7.70;70.50;;;;;;2343431;53;21014;-73
2022/02/06 03:21:36;;;;;;;7.97;1.67;;;7.70;70.60;;;;;;2340557;55;20935;-73
2022/02/06 03:24:18;;;;;;;5.15;1.48;;;7.70;70.30;;;;;;2340398;55;20949;-70
2022/02/06 03:26:45;;;;;;;4.97;1.52;;;7.70;70.60;;;;;;2373086;53;20948;-74
2022/02/06 03:29:12;;;;;;;5.15;1.87;;;7.70;70.70;;;;;;2340730;55;21025;-72
2022/02/06 03:31:39;;;;;;;7.30;1.73;;;7.70;70.60;;;;;;2375368;53;20963;-71
2022/02/06 03:34:08;;;;;;;5.60;1.52;;;7.70;70.40;;;;;;2340248;54;20983;-73
2022/02/06 03:36:34;;;;;;;7.35;1.73;;;7.70;70.40;;;;;;2340338;55;20927;-71
2022/02/06 03:39:00;;;;;;;7.15;2.03;;;7.70;70.60;;;;;;2341409;54;20959;-71
2022/02/06 03:41:28;;;;;;;5.43;1.48;;;7.80;70.80;;;;;;2340654;53;20953;-74
2022/02/06 03:44:05;;;;;;;7.85;2.05;;;7.70;70.70;;;;;;2341040;53;21421;-71
2022/02/06 03:46:39;;;;;;;4.62;1.25;;;7.80;70.50;;;;;;2341103;53;20923;-73
2022/02/06 03:49:32;;;;;;;5.07;1.52;;;7.80;70.50;;;;;;2341373;54;20981;-73
2022/02/06 03:52:47;;;;;;;4.32;1.23;;;7.80;70.50;;;;;;2291448;55;1733784;-72
2022/02/06 03:55:19;;;;;;;3.70;1.42;;;7.80;70.50;;;;;;2318809;54;20968;-75
2022/02/06 03:57:49;;;;;;;3.47;1.02;;;7.80;70.50;;;;;;2316674;54;21021;-72
2022/02/06 04:00:17;;;;;;;7.10;1.52;;;7.80;70.40;;;;;;2320584;54;21381;-73
2022/02/06 04:02:46;;;;;;;6.20;1.45;;;7.80;70.80;;;;;;2328451;54;20940;-70
2022/02/06 04:05:14;;;;;;;5.70;1.50;;;7.90;70.90;;;;;;2341515;53;22482;-71
2022/02/06 04:07:42;;;;;;;4.93;1.55;;;7.90;70.70;;;;;;2340019;55;20916;-72
2022/02/06 04:10:11;;;;;;;4.80;1.20;;;7.90;71.00;;;;;;2340202;54;20966;-74
2022/02/06 04:12:41;;;;;;;5.32;1.35;;;8.00;71.20;;;;;;2359382;53;20947;-73
2022/02/06 04:15:13;;;;;;;3.47;1.10;;;8.00;70.90;;;;;;2342051;54;20911;-73
2022/02/06 04:17:47;;;;;;;5.28;1.40;;;8.00;70.90;;;;;;2472053;53;21006;-75
2022/02/06 04:20:13;;;;;;;6.20;1.30;;;8.10;70.60;;;;;;2340018;54;20902;-73
2022/02/06 04:22:40;;;;;;;5.85;1.08;;;8.10;71.00;;;;;;2345682;53;20969;-71
2022/02/06 04:25:07;;;;;;;4.12;1.35;;;8.10;71.30;;;;;;2328699;53;20949;-72
2022/02/06 04:27:33;;;;;;;8.32;1.42;;;8.20;71.00;;;;;;2335218;53;21076;-71
2022/02/06 04:29:59;;;;;;;3.28;0.95;;;8.20;70.90;;;;;;2343271;53;20983;-71
2022/02/06 04:32:28;;;;;;;7.72;1.35;;;8.30;70.70;;;;;;2337761;53;20938;-70
2022/02/06 04:34:56;;;;;;;5.22;1.20;;;8.30;70.70;;;;;;2335447;54;20967;-73
2022/02/06 04:37:34;;;;;;;6.65;1.45;;;8.40;70.50;;;;;;2397831;53;21004;-73
2022/02/06 04:44:08;;;;;;;5.20;1.40;;;8.40;70.70;;;;;;2340134;55;20955;-72
2022/02/06 05:12:34;;;;;;;4.55;1.40;;;8.60;69.90;;;;;;2440700;53;21036;-73
2022/02/06 05:15:37;;;;;;;4.57;1.17;;;8.60;69.70;;;;;;2585919;53;20959;-73
2022/02/06 05:18:30;;;;;;;5.57;1.70;;;8.60;70.30;;;;;;2340485;55;21769;-72
2022/02/06 05:21:53;;;;;;;6.50;1.27;;;8.60;69.50;;;;;;2340999;54;20895;-72
2022/02/06 05:24:38;;;;;;;4.62;1.15;;;8.60;69.90;;;;;;2341047;55;21007;-71
2022/02/06 05:27:25;;;;;;;6.07;1.55;;;8.70;69.50;;;;;;2339650;55;20947;-71
2022/02/06 05:30:02;;;;;;;4.85;1.40;;;8.70;69.70;;;;;;2534642;53;21073;-72
2022/02/06 05:32:37;;;;;;;5.12;1.48;;;8.70;69.70;;;;;;2321138;55;20919;-72
2022/02/06 05:35:04;;;;;;;6.03;1.27;;;8.70;69.60;;;;;;2341560;55;20936;-72
2022/02/06 05:37:31;;;;;;;6.82;1.50;;;8.70;69.80;;;;;;2392376;53;20911;-74
2022/02/06 05:39:57;;;;;;;5.18;1.15;;;8.70;70.00;;;;;;2321331;55;20923;-72
2022/02/06 05:42:23;;;;;;;8.65;2.35;;;8.70;69.90;;;;;;2338597;55;20899;-73
2022/02/06 05:44:55;;;;;;;4.97;1.48;;;8.70;69.60;;;;;;2554572;52;21941;-72
2022/02/06 05:47:25;;;;;;;5.82;1.60;;;8.70;69.60;;;;;;2341250;53;20991;-72
2022/02/06 05:49:51;;;;;;;4.20;1.50;;;8.70;69.40;;;;;;2576830;53;20953;-73
2022/02/06 05:52:20;;;;;;;5.20;1.12;;;8.70;69.60;;;;;;2344173;53;20955;-71
2022/02/06 05:54:47;;;;;;;8.25;1.30;;;8.70;69.80;;;;;;2336170;53;20960;-73
2022/02/06 05:57:13;;;;;;;4.85;1.12;;;8.60;69.60;;;;;;2364189;53;21010;-74
2022/02/06 05:59:39;;;;;;;5.37;1.25;;;8.70;69.70;;;;;;2340081;55;20999;-73
2022/02/06 06:02:06;;;;;;;4.37;1.30;;;8.60;69.60;;;;;;2342929;53;20965;-73
2022/02/06 06:04:32;;;;;;;5.60;1.50;;;8.60;69.60;;;;;;2449020;53;20978;-74
2022/02/06 06:07:00;;;;;;;6.87;1.30;;;8.60;69.40;;;;;;2340318;55;20947;-72
2022/02/06 06:09:26;;;;;;;6.75;1.95;;;8.60;69.60;;;;;;2447590;52;21815;-71
2022/02/06 06:11:52;;;;;;;8.43;1.40;;;8.60;69.10;;;;;;2339483;54;20931;-72
2022/02/06 06:14:19;;;;;;;8.65;2.53;;;8.50;69.20;;;;;;2453496;53;20927;-72
2022/02/06 06:16:46;;;;;;;6.32;1.58;;;8.50;69.00;;;;;;2343925;54;20999;-72
2022/02/06 06:19:13;;;;;;;6.03;1.35;;;8.50;69.10;;;;;;2339542;53;20959;-73
2022/02/06 06:21:45;;;;;;;4.78;1.67;;;8.40;69.10;;;;;;2340299;55;20947;-71
2022/02/06 06:24:16;;;;;;;6.90;1.30;;;8.50;69.50;;;;;;2361603;53;20990;-73
2022/02/06 06:26:42;;;;;;;7.25;1.85;;;8.40;69.40;;;;;;2344127;54;20946;-74
2022/02/06 06:29:09;;;;;;;7.55;1.70;;;8.50;69.40;;;;;;2338680;53;20999;-72
2022/02/06 06:31:37;;;;;;;9.30;1.80;;;8.40;69.00;;;;;;2339672;55;20991;-72
2022/02/06 06:34:04;;;;;;;2.72;1.02;;;8.40;69.40;;;;;;2346113;53;20945;-73
2022/02/06 06:36:32;;;;;;;6.65;1.30;;;8.40;69.70;;;;;;2392959;53;20907;-71
2022/02/06 06:38:58;;;;;;;5.45;1.40;;;8.50;69.60;;;;;;2447088;53;21685;-72
2022/02/06 06:41:35;;;;;;;5.97;1.60;;;8.40;69.70;;;;;;2342599;55;20979;-73
2022/02/06 06:44:01;;;;;;;4.35;1.30;;;8.50;69.80;;;;;;2339440;55;20927;-73
2022/02/06 06:46:28;;;;;;;4.47;1.20;;;8.50;69.90;;;;;;2505471;53;21002;-73
2022/02/06 06:48:57;;;;;;;7.53;1.50;;;8.50;69.80;;;;;;2338456;53;21753;-73
2022/02/06 06:51:23;;;;;;;7.72;1.37;;;8.50;69.90;;;;;;2458245;53;20927;-70
2022/02/06 06:53:51;;;;;;;5.40;1.60;;;8.50;69.90;;;;;;2341721;54;20981;-73
2022/02/06 06:56:37;;;;;;;6.12;1.48;;;8.50;69.20;;;;;;2417643;53;20926;-75
2022/02/06 06:59:13;;;;;;;5.68;1.45;;;8.50;69.20;;;;;;2337911;54;21003;-74
2022/02/06 07:01:45;;;;;;;7.47;2.22;;;8.50;69.00;;;;;;2320237;53;21000;-72
2022/02/06 07:04:12;;;;;;;7.95;1.80;;;8.50;69.20;;;;;;2310311;54;20929;-75
2022/02/06 07:06:53;;;;;;;6.00;1.35;;;8.50;69.00;;;;;;2338881;54;20974;-72
2022/02/06 07:09:20;;;;;;;8.77;1.70;;;8.50;69.30;;;;;;2320463;54;20931;-72
2022/02/06 07:11:47;;;;;;;7.20;1.70;;;8.50;69.80;;;;;;2347288;54;20966;-72
2022/02/06 07:14:13;;;;;;;7.53;1.52;;;8.50;69.40;;;;;;2314794;54;21012;-72
2022/02/06 07:16:39;;;;;;;5.87;1.67;;;8.50;69.30;;;;;;2424228;53;21778;-71
2022/02/06 07:19:06;;;;;;;7.20;1.70;;;8.50;69.10;;;;;;2344310;53;20930;-73
2022/02/06 07:21:38;;;;;;;6.37;1.50;;;8.50;69.10;;;;;;2343863;54;20942;-74
2022/02/06 07:24:05;;;;;;;4.82;1.25;;;8.50;69.00;;;;;;2314946;54;21508;-71
2022/02/06 07:26:33;;;;;;;5.05;1.30;;;8.50;69.30;;;;;;2354145;54;20962;-72
2022/02/06 07:29:01;;;;;;;7.12;1.30;;;8.50;69.60;;;;;;2332109;54;21809;-73
2022/02/06 07:31:28;;;;;;;5.12;1.35;;;8.50;69.30;;;;;;2334001;54;20973;-72
2022/02/06 07:33:54;;;;;;;8.63;1.67;;;8.50;69.80;;;;;;2321549;54;21059;-72
2022/02/06 07:36:20;;;;;;;8.77;2.22;;;8.60;69.70;;;;;;2426386;54;20954;-71
2022/02/06 07:38:47;;;;;;;5.82;1.52;;;8.60;69.70;;;;;;2344833;54;20985;-71
2022/02/06 07:41:13;;;;;;;6.25;1.40;;;8.60;69.60;;;;;;2324036;54;20958;-72
2022/02/06 07:43:39;;;;;;;4.70;1.40;;;8.60;69.60;;;;;;2341650;54;21343;-72
2022/02/06 07:46:11;;;;;;;6.12;1.42;;;8.60;69.70;;;;;;2344322;54;21347;-73
2022/02/06 07:48:42;;;;;;;3.97;1.50;;;8.60;69.90;;;;;;2341432;54;20950;-73
2022/02/06 07:51:09;;;;;;;7.00;1.73;;;8.70;69.60;;;;;;2344778;54;21006;-72
2022/02/06 07:53:35;;;;;;;6.05;1.87;;;8.70;69.90;;;;;;2344271;54;21002;-70
2022/02/06 07:56:01;;;;;;;7.20;1.70;;;8.70;70.10;;;;;;2344243;53;20989;-72
2022/02/06 07:58:28;;;;;;;8.00;1.55;;;8.70;70.00;;;;;;2343851;54;21005;-72
2022/02/06 08:00:54;;;;;;;5.03;1.60;;;8.80;70.50;;;;;;2343991;54;20962;-72
2022/02/06 08:03:21;;;;;;;6.07;1.40;;;8.80;70.20;;;;;;2303096;54;21122;-71
2022/02/06 08:05:47;;;;;;;8.90;1.87;;;8.80;69.80;;;;;;2343269;54;20949;-75
2022/02/06 08:08:15;;;;;;;7.85;1.55;;;8.80;70.30;;;;;;2340984;54;21005;-73
2022/02/06 08:10:41;;;;;;;6.25;1.55;;;8.90;70.20;;;;;;2327214;54;21548;-72
2022/02/06 08:13:12;;;;;;;5.60;1.70;;;8.90;70.70;;;;;;2576435;53;21407;-75
2022/02/06 08:15:38;;;;;;;6.10;2.10;;;8.90;70.10;;;;;;2343736;53;21029;-71
2022/02/06 08:18:07;;;;;;;9.57;2.10;;;9.00;70.10;;;;;;2343440;54;20957;-73
2022/02/06 08:20:38;;;;;;;6.87;1.50;;;9.00;69.30;;;;;;2344174;54;21092;-73
2022/02/06 08:23:05;;;;;;;7.30;1.70;;;9.00;69.80;;;;;;2372551;53;21435;-71
2022/02/06 08:25:32;;;;;;;5.37;1.83;;;9.00;69.80;;;;;;2345195;53;20986;-73
2022/02/06 08:27:59;;;;;;;7.55;1.42;;;9.10;69.50;;;;;;2344635;54;20946;-71
2022/02/06 08:30:25;;;;;;;5.55;1.40;;;9.10;69.60;;;;;;2340659;54;20989;-73
2022/02/06 08:32:53;;;;;;;8.80;1.70;;;9.10;69.90;;;;;;2343903;54;21422;-73
2022/02/06 08:35:19;;;;;;;4.85;1.50;;;9.10;69.90;;;;;;2336074;54;20974;-74
2022/02/06 08:37:46;;;;;;;5.07;1.58;;;9.10;69.60;;;;;;2328557;54;21411;-72
2022/02/06 08:40:16;;;;;;;5.80;1.55;;;9.20;69.30;;;;;;2344682;53;20930;-72
2022/02/06 08:42:42;;;;;;;5.72;1.30;;;9.20;69.40;;;;;;2570181;53;20946;-72
2022/02/06 08:45:11;;;;;;;8.18;2.12;;;9.20;70.90;;;;;;2344668;53;21004;-73
2022/02/06 08:47:38;;;;;;;8.52;1.73;;;9.30;70.50;;;;;;2325591;54;21018;-71
2022/02/06 08:50:05;;;;;;;7.82;1.45;;;9.30;70.30;;;;;;2338062;54;20945;-71
2022/02/06 08:52:31;;;;;;;5.28;1.48;;;9.40;70.10;;;;;;2342481;54;21093;-71
2022/02/06 08:55:00;;;;;;;6.80;1.58;;;9.40;70.30;;;;;;2323572;53;21017;-73
2022/02/06 08:57:26;;;;;;;8.43;1.65;;;9.40;69.80;;;;;;2334888;53;20986;-73
2022/02/06 08:59:55;;;;;;;7.45;1.27;;;9.50;70.10;;;;;;2342260;54;21560;-73
2022/02/06 09:02:21;;;;;;;6.00;1.58;;;9.50;69.80;;;;;;2351395;53;21003;-74
2022/02/06 09:04:48;;;;;;;6.68;1.73;;;9.50;70.30;;;;;;2341781;54;20970;-71
2022/02/06 09:07:14;;;;;;;7.70;1.73;;;9.60;69.60;;;;;;2342550;54;20926;-72
2022/02/06 09:09:47;;;;;;;6.35;1.73;;;9.60;69.70;;;;;;2342069;53;20958;-73
2022/02/06 09:12:13;;;;;;;7.53;1.30;;;9.60;70.00;;;;;;2337717;54;21007;-73
2022/02/06 09:14:39;;;;;;;6.47;1.40;;;9.60;69.80;;;;;;2344863;54;20975;-73
2022/02/06 09:17:07;;;;;;;5.43;1.50;;;9.60;69.70;;;;;;2323325;54;21053;-73
2022/02/06 09:19:36;;;;;;;7.20;1.70;;;9.60;70.10;;;;;;2343088;54;21022;-72
2022/02/06 09:22:04;;;;;;;6.05;1.65;;;9.70;69.60;;;;;;2342624;54;21002;-72
2022/02/06 09:24:30;;;;;;;3.95;1.30;;;9.60;69.00;;;;;;2337077;54;21384;-71
2022/02/06 09:26:56;;;;;;;7.10;1.65;;;9.60;69.00;;;;;;2342167;54;20973;-71
2022/02/06 09:29:22;;;;;;;4.60;1.23;;;9.60;68.90;;;;;;2342388;54;21010;-73
2022/02/06 09:31:51;;;;;;;6.68;1.42;;;9.60;69.10;;;;;;2342779;53;21038;-73
2022/02/06 09:36:44;;;;;;;5.12;1.40;;;9.60;69.30;;;;;;2341645;54;21018;-73
2022/02/06 09:39:12;;;;;;;6.05;1.50;;;9.60;69.10;;;;;;2341761;54;20958;-74
2022/02/06 09:41:48;;;;;;;4.15;1.20;;;9.60;69.30;;;;;;2341413;54;21065;-74
2022/02/06 09:44:15;;;;;;;12.35;3.58;;;9.70;69.60;;;;;;2342705;54;20935;-74
2022/02/06 09:46:48;;;;;;;6.43;2.28;;;9.70;69.40;;;;;;2321525;54;21427;-72
2022/02/06 09:49:15;;;;;;;7.78;2.20;;;9.70;68.90;;;;;;2337837;54;20935;-74
2022/02/06 09:51:47;;;;;;;4.37;1.77;;;9.70;69.40;;;;;;2319807;54;20958;-73
2022/02/06 09:54:16;;;;;;;6.28;2.65;;;9.70;68.60;;;;;;2342033;53;21066;-72
2022/02/06 09:56:48;;;;;;;6.80;1.90;;;9.70;69.30;;;;;;2340725;53;21008;-75
2022/02/06 09:59:20;;;;;;;8.63;1.45;;;9.70;69.00;;;;;;2342227;54;20958;-71
2022/02/06 10:01:54;;;;;;;4.90;1.50;;;9.80;69.00;;;;;;2342450;54;21021;-72
2022/02/06 10:04:29;;;;;;;4.28;1.10;;;9.80;69.50;;;;;;2342288;54;21957;-72
2022/02/06 10:07:07;;;;;;;5.78;1.12;;;9.80;69.10;;;;;;2443932;53;20994;-71
2022/02/06 10:09:48;;;;;;;6.20;1.20;;;9.80;68.90;;;;;;2347513;53;20966;-72
2022/02/06 10:12:15;;;;;;;3.37;1.05;;;9.80;69.00;;;;;;2325675;54;20943;-74
2022/02/06 10:14:41;;;;;;;5.20;1.40;;;9.80;68.40;;;;;;2336917;54;21530;-74
2022/02/06 10:17:11;;;;;;;4.60;1.25;;;9.90;69.40;;;;;;2435409;53;20943;-73
2022/02/06 10:19:49;;;;;;;6.30;1.40;;;9.90;69.70;;;;;;2342943;54;20995;-73
2022/02/06 10:22:30;;;;;;;5.25;1.60;;;10.00;67.40;;;;;;2387168;53;20958;-72
2022/02/06 10:25:03;;;;;;;5.28;1.52;;;10.00;67.60;;;;;;2319997;54;20958;-71
2022/02/06 10:27:48;;;;;;;;;;;10.00;68.30;;;;;;2321185;54;21034;-73
2022/02/06 10:30:20;;;;;;;6.20;1.50;;;10.10;67.70;;;;;;2389907;53;20083;-75
2022/02/06 10:33:24;;;;;;;5.03;1.48;;;10.10;67.70;;;;;;2373421;53;20966;-72
2022/02/06 10:35:54;;;;;;;3.78;1.30;;;10.10;67.00;;;;;;2339667;53;20970;-72
2022/02/06 10:38:22;;;;;;;8.88;1.60;;;10.10;67.40;;;;;;2331704;54;20951;-72
2022/02/06 10:41:24;;;;;;;7.07;1.60;;;10.10;68.00;;;;;;2330304;54;20954;-74
2022/02/06 10:44:00;;;;;;;5.68;1.20;;;10.10;67.50;;;;;;2422810;53;20966;-72
2022/02/06 10:46:28;;;;;;;6.85;1.50;;;10.20;67.90;;;;;;2328837;54;20946;-74
2022/02/06 10:49:00;;;;;;;6.78;1.40;;;10.10;67.30;;;;;;2317122;54;21021;-73
2022/02/06 10:52:18;;;;;;;4.15;1.33;;;10.10;67.00;;;;;;2342706;54;21438;-73
2022/02/06 10:54:44;;;;;;;6.68;1.48;;;10.10;66.70;;;;;;2443352;54;20981;-72
2022/02/06 10:57:13;;;;;;;4.18;1.30;;;10.10;66.60;;;;;;2315736;54;21815;-72
2022/02/06 11:00:02;;;;;;;5.18;1.30;;;10.00;66.20;;;;;;2432605;54;20913;-71
2022/02/06 11:02:30;;;;;;;5.82;1.20;;;10.00;66.20;;;;;;2315155;54;21732;-71
2022/02/06 11:05:20;;;;;;;4.87;1.70;;;10.00;66.90;;;;;;2315530;54;20972;-73
2022/02/06 11:07:53;;;;;;;4.28;1.35;;;10.00;65.70;;;;;;2315505;54;21497;-71
2022/02/06 11:10:20;;;;;;;6.18;1.73;;;10.00;66.70;;;;;;2315646;54;20953;-72
2022/02/06 11:12:59;;;;;;;5.85;1.40;;;10.00;66.30;;;;;;2315602;54;21481;-71
2022/02/06 11:15:41;;;;;;;3.33;0.93;;;10.00;67.00;;;;;;2341935;53;20970;-72
2022/02/06 11:18:32;;;;;;;5.63;1.40;;;10.00;66.90;;;;;;2325554;54;20944;-70
2022/02/06 11:21:09;;;;;;;4.35;1.30;;;10.10;66.00;;;;;;2324089;54;20961;-73
2022/02/06 11:23:54;;;;;;;6.22;1.27;;;10.10;66.90;;;;;;2332790;54;21006;-71
2022/02/06 11:26:23;;;;;;;7.00;1.85;;;10.10;66.60;;;;;;2342362;54;20966;-73
2022/02/06 11:28:52;;;;;;;5.70;1.37;;;10.20;67.50;;;;;;2319314;54;21014;-72
2022/02/06 11:31:19;;;;;;;6.07;1.80;;;10.20;66.70;;;;;;2345191;54;20962;-73
2022/02/06 11:33:46;;;;;;;9.15;3.20;;;10.20;66.70;;;;;;2326172;54;20927;-73
2022/02/06 11:36:17;;;;;;;5.47;1.73;;;10.20;66.00;;;;;;2333973;54;21133;-71
2022/02/06 11:43:55;;;;;;;5.85;1.23;;;10.30;66.30;;;;;;2341964;53;21013;-72
2022/02/06 11:46:36;;;;;;;3.20;1.08;;;10.30;65.90;;;;;;2342412;54;20966;-71
2022/02/06 11:49:16;;;;;;;4.47;1.25;;;10.30;66.00;;;;;;2342427;54;20930;-72
2022/02/06 11:51:53;;;;;;;4.03;1.05;;;10.30;65.50;;;;;;2342640;54;20978;-73
2022/02/06 11:54:33;;;;;;;6.05;1.30;;;10.30;65.70;;;;;;2319745;53;20938;-73
2022/02/06 11:57:24;;;;;;;4.95;0.95;;;10.40;66.30;;;;;;2341732;54;21022;-72
2022/02/06 12:01:42;;;;;;;3.75;0.98;;;10.40;66.30;;;;;;2350938;53;21050;-74
2022/02/06 12:04:19;;;;;;;3.37;0.88;;;10.40;64.50;;;;;;2342739;54;21013;-75
2022/02/06 12:06:54;;;;;;;3.90;0.95;;;10.40;65.60;;;;;;2375564;53;21458;-72
2022/02/06 12:09:28;;;;;;;3.30;0.80;;;10.40;65.50;;;;;;2315483;53;20972;-73
2022/02/06 13:22:31;;;;;;;2.97;0.90;;;10.00;66.00;;;;;;2259024;55;22771;-75
2022/02/06 13:33:05;;;;;;;3.85;1.10;;;9.90;67.20;;;;;;2279085;55;21010;-74
2022/02/06 13:35:44;;;;;;;4.07;0.95;;;9.90;68.20;;;;;;2309306;54;21538;-74
2022/02/06 13:38:15;;;;;;;1.98;0.90;;;9.90;68.10;;;;;;2257665;55;21065;-74
2022/02/06 13:40:46;;;;;;;6.25;0.98;;;9.90;68.30;;;;;;2245140;55;20985;-75
2022/02/06 13:43:23;;;;;;;4.20;1.12;;;9.90;68.00;;;;;;2451112;55;21567;-75
2022/02/06 13:45:54;;;;;;;3.55;0.98;;;9.90;67.90;;;;;;2221151;55;21121;-72
2022/02/06 13:48:21;;;;;;;2.60;0.80;;;9.80;67.70;;;;;;2251421;55;20996;-74
2022/02/06 13:50:53;;;;;;;2.97;0.85;;;9.80;67.70;;;;;;2235192;55;21080;-72
2022/02/06 13:53:22;;;;;;;4.35;0.90;;;9.80;67.90;;;;;;2263938;55;21084;-73
2022/02/06 13:55:59;;;;;;;8.45;1.23;;;9.70;67.30;;;;;;2226104;55;20990;-75
2022/02/06 13:58:27;;;;;;;2.80;0.80;;;9.70;67.80;;;;;;2437066;55;20953;-76
2022/02/06 14:01:00;;;;;;;4.18;0.90;;;9.60;67.90;;;;;;2235895;56;21053;-73
2022/02/06 14:03:49;;;;;;;3.35;1.77;;;9.60;68.50;;;;;;2223244;55;21855;-74
2022/02/06 14:06:18;;;;;;;2.78;0.80;;;9.60;67.80;;;;;;2324035;56;20970;-75
2022/02/06 14:12:54;;;;;;;3.40;1.00;;;9.50;68.40;;;;;;2254871;55;20959;-75
2022/02/06 14:15:27;;;;;;;3.97;1.08;;;9.50;68.50;;;;;;2257283;55;21555;-73
2022/02/06 14:17:56;;;;;;;2.40;0.98;;;9.40;68.70;;;;;;2290364;55;21485;-73
2022/02/06 14:20:25;;;;;;;4.72;1.02;;;9.30;68.80;;;;;;2252850;55;21129;-74
2022/02/06 14:22:55;;;;;;;3.33;1.20;;;9.30;68.30;;;;;;2276678;55;21020;-74
2022/02/06 14:25:31;;;;;;;2.60;1.27;;;9.30;68.50;;;;;;2307399;55;21036;-74
2022/02/06 14:27:58;;;;;;;3.78;1.00;;;9.20;68.90;;;;;;2295294;55;21479;-73
2022/02/06 14:30:27;;;;;;;3.67;0.80;;;9.20;69.20;;;;;;2262281;55;21018;-75
2022/02/06 14:34:12;;;;;;;3.50;1.05;;;9.10;69.20;;;;;;2262472;55;21028;-75
2022/02/06 14:36:39;;;;;;;3.35;0.98;;;9.10;69.30;;;;;;2275166;55;20961;-75
2022/02/06 14:39:06;;;;;;;3.20;1.30;;;9.10;69.60;;;;;;2280803;55;21060;-73
2022/02/06 14:41:59;;;;;;;3.12;1.10;;;9.10;69.70;;;;;;2429879;54;21674;-74
2022/02/06 14:44:26;;;;;;;2.72;0.90;;;9.10;70.10;;;;;;2464388;55;21052;-73
2022/02/06 14:46:52;;;;;;;3.47;1.30;;;9.00;70.30;;;;;;2330581;55;21427;-74
2022/02/06 14:49:19;;;;;;;4.57;1.40;;;9.00;70.30;;;;;;2263997;55;21047;-74
2022/02/06 14:51:46;;;;;;;2.70;0.90;;;9.00;70.40;;;;;;2369877;55;21486;-75
2022/02/06 14:54:19;;;;;;;3.62;0.93;;;8.90;70.60;;;;;;2262176;55;20946;-74
2022/02/06 14:57:00;;;;;;;3.87;0.90;;;9.00;70.80;;;;;;2288677;55;20977;-74
2022/02/06 14:59:26;;;;;;;6.22;1.40;;;8.90;70.80;;;;;;2271780;55;20978;-74
2022/02/06 15:01:53;;;;;;;3.12;1.12;;;8.90;70.50;;;;;;2388466;54;20992;-76
2022/02/06 15:04:25;;;;;;;2.72;0.93;;;8.90;70.50;;;;;;2290221;55;21057;-75
2022/02/06 15:06:52;;;;;;;4.35;1.00;;;8.90;70.80;;;;;;2288005;55;21453;-74
2022/02/06 15:09:18;;;;;;;3.22;0.90;;;8.80;70.90;;;;;;2287789;55;21661;-77
2022/02/06 15:11:45;;;;;;;3.22;1.00;;;8.90;70.80;;;;;;2288790;55;20973;-74
2022/02/06 15:14:12;;;;;;;4.22;0.95;;;8.80;70.90;;;;;;2448068;55;20960;-72
2022/02/06 15:16:39;;;;;;;5.30;1.12;;;8.80;71.20;;;;;;2289652;55;20965;-74
2022/02/06 15:19:17;;;;;;;5.65;1.35;;;8.80;71.20;;;;;;2288114;55;21481;-75
2022/02/06 15:21:43;;;;;;;3.97;0.85;;;8.80;71.20;;;;;;2281294;55;21029;-74
2022/02/06 15:24:10;;;;;;;3.87;1.00;;;8.80;71.30;;;;;;2278857;56;20965;-75
2022/02/06 15:26:36;;;;;;;3.17;0.90;;;8.80;71.50;;;;;;2277918;55;21305;-74
2022/02/06 15:29:08;;;;;;;3.62;1.00;;;8.80;71.50;;;;;;2277985;56;20969;-74
2022/02/06 15:31:34;;;;;;;2.35;0.80;;;8.80;71.50;;;;;;2280583;56;21060;-76
2022/02/06 15:34:13;;;;;;;2.80;0.93;;;8.80;70.90;;;;;;2329470;55;21054;-76
2022/02/06 15:36:46;;;;;;;2.50;0.90;;;8.80;71.50;;;;;;2308346;55;21828;-74
2022/02/06 15:39:23;;;;;;;2.87;1.00;;;8.80;71.50;;;;;;2279121;56;21012;-73
2022/02/06 15:41:52;;;;;;;2.08;0.80;;;8.80;71.80;;;;;;2278176;55;21271;-75
2022/02/06 15:44:19;;;;;;;3.97;1.00;;;8.80;72.00;;;;;;2278403;56;21091;-76
2022/02/06 15:46:46;;;;;;;3.60;0.90;;;8.80;71.90;;;;;;2323109;55;20932;-72
2022/02/06 15:49:12;;;;;;;5.37;1.10;;;8.90;71.60;;;;;;2280129;55;20957;-76
2022/02/06 15:51:39;;;;;;;3.97;0.90;;;8.90;72.50;;;;;;2278607;56;20949;-75
2022/02/06 15:54:07;;;;;;;2.33;0.80;;;8.90;72.00;;;;;;2278661;56;20940;-75
2022/02/06 15:56:34;;;;;;;3.42;0.90;;;9.00;71.80;;;;;;2278806;56;21060;-74
2022/02/06 15:59:02;;;;;;;3.20;0.98;;;9.00;71.60;;;;;;2396642;55;20952;-73
2022/02/06 16:01:29;;;;;;;2.20;0.80;;;9.00;71.90;;;;;;2294093;55;20937;-77
2022/02/06 16:03:55;;;;;;;3.53;1.00;;;9.10;71.70;;;;;;2383347;55;21721;-76
2022/02/06 16:06:22;;;;;;;2.45;0.93;;;9.10;71.70;;;;;;2278518;56;20969;-74
2022/02/06 16:08:49;;;;;;;3.15;0.90;;;9.20;71.40;;;;;;2278806;56;20964;-74
2022/02/06 16:11:15;;;;;;;2.37;0.80;;;9.20;71.50;;;;;;2281761;56;21756;-76
2022/02/06 16:13:41;;;;;;;3.40;0.90;;;9.20;71.40;;;;;;2271594;55;21077;-77
2022/02/06 16:16:07;;;;;;;2.87;0.98;;;9.30;71.50;;;;;;2296148;55;21797;-76
2022/02/06 16:18:34;;;;;;;3.62;0.80;;;9.30;71.20;;;;;;2279735;55;20961;-75
2022/02/06 16:21:00;;;;;;;3.97;1.00;;;9.40;70.90;;;;;;2314649;55;21017;-74
2022/02/06 16:23:27;;;;;;;3.28;1.20;;;9.40;71.60;;;;;;2277916;55;21070;-75
2022/02/06 16:25:53;;;;;;;4.55;1.17;;;9.40;70.60;;;;;;2284524;55;21692;-74
2022/02/06 16:28:20;;;;;;;4.82;1.00;;;9.50;71.20;;;;;;2278397;56;20941;-75
2022/02/06 16:30:48;;;;;;;6.10;0.90;;;9.50;71.40;;;;;;2280544;55;20946;-75
2022/02/06 16:33:14;;;;;;;2.85;0.77;;;9.50;71.20;;;;;;2303227;55;20969;-77
2022/02/06 16:35:41;;;;;;;1.70;0.70;;;9.60;71.50;;;;;;2483275;54;20989;-74
2022/02/06 16:38:24;;;;;;;2.53;1.05;;;9.60;71.50;;;;;;2278406;55;21528;-75